Time;durP1;ratioP1;P1;durP2;ratioP2;P2;SDS_P1;SDS_P2;PMS_P1;PMS_P2;Temp;Humidity;BMP_temperature;BMP_pressure;BME280_temperature;BME280_humidity;BME280_pressure;Samples;Min_cycle;Max_cycle;Signal;HPM_P1;HPM_P2
2022/08/03 00:01:49;;;;;;;7.20;5.40;;;18.50;1.00;;;;;;5077376;28;20468;-53
2022/08/03 00:04:18;;;;;;;6.23;5.63;;;18.40;1.00;;;;;;5077861;28;20504;-53
2022/08/03 00:06:46;;;;;;;7.03;5.87;;;18.50;1.00;;;;;;5077799;28;20468;-50
2022/08/03 00:09:13;;;;;;;7.43;6.10;;;18.40;1.00;;;;;;5077656;28;20522;-53
2022/08/03 00:11:42;;;;;;;7.60;6.27;;;18.40;1.00;;;;;;5077281;28;20471;-52
2022/08/03 00:14:10;;;;;;;6.80;6.00;;;18.50;1.00;;;;;;5077213;28;20493;-51
2022/08/03 00:16:39;;;;;;;7.07;5.53;;;18.40;1.00;;;;;;5077089;28;20438;-53
2022/08/03 00:19:07;;;;;;;6.83;5.60;;;18.50;1.00;;;;;;5077859;28;20466;-48
2022/08/03 00:21:36;;;;;;;8.67;6.90;;;18.40;1.00;;;;;;5076112;28;20497;-53
2022/08/03 00:24:06;;;;;;;8.20;6.33;;;18.40;1.00;;;;;;5077329;28;20461;-49
2022/08/03 00:26:33;;;;;;;8.33;6.20;;;18.30;1.00;;;;;;5077228;28;20461;-52
2022/08/03 00:29:04;;;;;;;6.33;5.73;;;18.30;1.00;;;;;;5077755;28;20461;-49
2022/08/03 00:31:31;;;;;;;6.37;5.87;;;18.30;1.00;;;;;;5076951;28;20461;-53
2022/08/03 00:34:01;;;;;;;6.70;6.10;;;18.30;1.00;;;;;;5077393;28;20523;-54
2022/08/03 00:36:30;;;;;;;7.97;5.93;;;18.20;1.00;;;;;;5077604;28;20461;-53
2022/08/03 00:38:59;;;;;;;5.93;5.33;;;18.20;1.00;;;;;;5077291;28;20457;-50
2022/08/03 00:41:26;;;;;;;6.67;6.07;;;18.10;1.00;;;;;;5077032;28;20461;-55
2022/08/03 00:43:53;;;;;;;7.13;6.37;;;18.10;1.00;;;;;;5077179;28;20894;-53
2022/08/03 00:46:21;;;;;;;7.10;6.40;;;18.10;1.00;;;;;;5075969;28;20818;-56
2022/08/03 00:48:48;;;;;;;7.00;6.30;;;18.00;1.00;;;;;;5077537;28;20465;-55
2022/08/03 00:51:16;;;;;;;8.60;6.10;;;18.00;1.00;;;;;;5077131;28;20807;-48
2022/08/03 00:53:44;;;;;;;6.80;5.67;;;17.90;17.10;;;;;;5076966;28;20485;-52
2022/08/03 00:56:15;;;;;;;7.73;6.53;;;17.90;62.20;;;;;;5077111;28;20765;-48
2022/08/03 00:58:45;;;;;;;6.60;6.00;;;17.90;99.90;;;;;;5076703;28;20465;-54
2022/08/03 01:01:12;;;;;;;6.57;5.97;;;17.90;79.50;;;;;;5077016;28;20473;-49
2022/08/03 01:03:42;;;;;;;6.47;5.87;;;17.90;35.60;;;;;;5080873;28;20568;-53
2022/08/03 01:06:16;;;;;;;6.60;6.00;;;17.80;20.10;;;;;;5081495;28;20465;-52
2022/08/03 01:08:51;;;;;;;8.37;6.37;;;17.80;26.10;;;;;;5081485;28;20440;-55
2022/08/03 01:11:36;;;;;;;6.67;6.00;;;17.90;1.00;;;;;;5081109;28;20460;-49
2022/08/03 01:14:09;;;;;;;6.03;5.43;;;17.90;1.00;;;;;;5080683;28;20496;-49
2022/08/03 01:16:49;;;;;;;6.80;6.10;;;17.90;1.00;;;;;;5081036;28;20457;-52
2022/08/03 01:19:51;;;;;;;7.10;6.17;;;17.90;1.00;;;;;;5080714;28;20760;-50
2022/08/03 01:22:44;;;;;;;6.80;6.10;;;17.80;33.20;;;;;;5080700;28;20464;-50
2022/08/03 01:25:23;;;;;;;6.87;5.90;;;17.70;1.00;;;;;;5073866;28;20465;-51
2022/08/03 01:28:20;;;;;;;10.80;6.90;;;17.70;51.80;;;;;;5080604;28;20889;-50
2022/08/03 01:30:50;;;;;;;9.20;6.17;;;17.50;99.90;;;;;;5081021;28;20515;-53
2022/08/03 01:33:22;;;;;;;6.53;6.03;;;17.50;99.90;;;;;;5080427;28;20460;-52
2022/08/03 01:35:54;;;;;;;6.63;6.03;;;17.50;99.90;;;;;;5080461;28;20964;-53
2022/08/03 01:38:27;;;;;;;7.10;6.40;;;17.50;99.90;;;;;;5080452;28;20461;-52
2022/08/03 01:41:03;;;;;;;6.80;6.23;;;17.50;99.90;;;;;;5080654;28;20465;-52
2022/08/03 01:43:34;;;;;;;7.17;6.43;;;17.50;58.70;;;;;;5080360;28;20464;-55
2022/08/03 01:46:04;;;;;;;6.73;6.13;;;17.40;99.90;;;;;;5079575;28;20480;-52
2022/08/03 01:48:32;;;;;;;6.93;6.33;;;17.30;99.90;;;;;;5080223;28;20459;-52
2022/08/03 01:51:00;;;;;;;8.10;6.47;;;17.30;99.90;;;;;;5080139;28;20964;-52
2022/08/03 01:53:32;;;;;;;6.90;6.20;;;17.40;99.90;;;;;;5080080;28;20488;-53
2022/08/03 01:56:03;;;;;;;6.33;5.80;;;17.40;99.90;;;;;;5080237;28;20503;-50
2022/08/03 01:58:32;;;;;;;6.40;5.80;;;17.40;99.90;;;;;;5080137;28;20481;-49
2022/08/03 02:01:00;;;;;;;6.77;6.17;;;17.40;99.90;;;;;;5079986;28;20868;-49
2022/08/03 02:03:29;;;;;;;8.33;6.33;;;17.40;99.90;;;;;;5079885;28;20829;-50
2022/08/03 02:06:00;;;;;;;8.30;6.40;;;17.30;99.90;;;;;;5080245;28;20462;-51
2022/08/03 02:08:29;;;;;;;9.37;6.10;;;17.40;99.90;;;;;;5080224;28;20801;-55
2022/08/03 02:11:01;;;;;;;7.90;6.50;;;17.40;99.90;;;;;;5079865;28;20551;-53
2022/08/03 02:13:29;;;;;;;6.80;5.40;;;17.40;99.90;;;;;;5080023;28;20436;-56
2022/08/03 02:16:01;;;;;;;6.93;6.33;;;17.30;99.90;;;;;;5079650;28;20586;-51
2022/08/03 02:18:33;;;;;;;8.13;6.67;;;17.40;99.90;;;;;;5079939;28;20468;-50
2022/08/03 02:21:03;;;;;;;6.33;5.73;;;17.30;92.50;;;;;;5080061;28;20465;-52
2022/08/03 02:23:30;;;;;;;6.80;6.20;;;17.30;31.80;;;;;;5079763;28;20883;-51
2022/08/03 02:26:04;;;;;;;6.40;5.80;;;17.30;46.10;;;;;;5079482;28;20890;-48
2022/08/03 02:28:35;;;;;;;7.03;6.10;;;17.30;99.90;;;;;;5079714;28;20464;-53
2022/08/03 02:31:07;;;;;;;9.70;6.40;;;17.20;99.90;;;;;;5080170;28;20442;-54
2022/08/03 02:33:45;;;;;;;6.40;5.63;;;17.30;99.90;;;;;;5079165;28;20937;-53
2022/08/03 02:36:16;;;;;;;6.40;5.80;;;17.20;99.90;;;;;;5079550;28;20467;-53
2022/08/03 02:38:47;;;;;;;7.40;6.70;;;17.20;99.90;;;;;;5079923;28;20436;-51
2022/08/03 02:41:17;;;;;;;8.37;6.30;;;17.10;99.90;;;;;;5078297;28;20463;-49
2022/08/03 02:43:48;;;;;;;6.67;6.07;;;17.10;99.90;;;;;;5079111;28;20468;-53
2022/08/03 02:46:19;;;;;;;6.40;5.60;;;17.00;99.90;;;;;;5078616;28;20465;-54
2022/08/03 02:48:53;;;;;;;6.10;5.53;;;17.00;99.90;;;;;;5079554;28;20471;-53
2022/08/03 02:51:24;;;;;;;7.20;6.47;;;17.00;99.90;;;;;;5078736;28;20461;-50
2022/08/03 02:53:54;;;;;;;8.10;5.27;;;17.00;99.90;;;;;;5078991;28;20546;-49
2022/08/03 02:56:24;;;;;;;8.63;6.20;;;17.00;99.90;;;;;;5079270;28;20467;-50
2022/08/03 02:58:53;;;;;;;7.50;6.00;;;17.00;99.90;;;;;;5078184;28;20495;-53
2022/08/03 03:01:24;;;;;;;6.63;6.03;;;17.00;99.90;;;;;;5077454;28;20462;-51
2022/08/03 03:03:56;;;;;;;9.30;5.70;;;17.00;99.90;;;;;;5078185;28;20466;-56
2022/08/03 03:06:30;;;;;;;8.07;6.70;;;16.90;99.90;;;;;;5078749;28;20461;-50
2022/08/03 03:09:01;;;;;;;6.13;5.53;;;16.90;99.90;;;;;;5078657;28;20471;-53
2022/08/03 03:11:29;;;;;;;6.60;5.90;;;16.80;99.90;;;;;;5078437;28;20757;-53
2022/08/03 03:13:58;;;;;;;5.70;5.20;;;16.90;99.90;;;;;;5078686;28;20461;-54
2022/08/03 03:16:27;;;;;;;4.77;4.37;;;16.80;99.90;;;;;;5078924;28;20580;-49
2022/08/03 03:18:56;;;;;;;5.87;5.23;;;16.80;99.90;;;;;;5077418;28;20465;-52
2022/08/03 03:21:25;;;;;;;8.30;5.53;;;16.80;99.90;;;;;;5076771;28;20869;-55
2022/08/03 03:23:53;;;;;;;5.30;4.80;;;16.80;99.90;;;;;;5077584;28;20468;-49
2022/08/03 03:26:22;;;;;;;7.33;5.33;;;16.70;99.90;;;;;;5078244;28;20467;-53
2022/08/03 03:28:49;;;;;;;5.83;5.33;;;16.70;99.90;;;;;;5077817;28;20442;-52
2022/08/03 03:31:22;;;;;;;5.87;5.37;;;16.70;99.90;;;;;;5077558;28;20484;-52
2022/08/03 03:33:51;;;;;;;7.27;6.03;;;16.70;99.90;;;;;;5077989;28;20754;-52
2022/08/03 03:36:22;;;;;;;6.10;5.60;;;16.70;99.90;;;;;;5077829;28;20564;-54
2022/08/03 03:38:49;;;;;;;5.40;4.90;;;16.60;99.90;;;;;;5077951;28;20461;-52
2022/08/03 03:41:19;;;;;;;6.00;5.30;;;16.60;99.90;;;;;;5077947;28;20465;-55
2022/08/03 03:43:47;;;;;;;5.60;5.13;;;16.70;99.90;;;;;;5078182;28;20465;-54
2022/08/03 03:46:17;;;;;;;5.80;5.30;;;16.70;99.90;;;;;;5078070;28;20806;-55
2022/08/03 03:48:45;;;;;;;5.50;5.00;;;16.70;99.90;;;;;;5078647;28;20726;-55
2022/08/03 03:51:12;;;;;;;5.50;5.00;;;16.60;99.90;;;;;;5078124;28;20464;-51
2022/08/03 03:53:42;;;;;;;6.50;5.73;;;16.50;1.00;;;;;;5077689;28;20489;-52
2022/08/03 03:56:09;;;;;;;4.83;4.40;;;16.50;1.00;;;;;;5077809;28;20945;-55
2022/08/03 03:58:36;;;;;;;5.33;4.87;;;16.50;1.00;;;;;;5078012;28;20742;-55
2022/08/03 04:01:04;;;;;;;8.43;5.13;;;16.50;1.00;;;;;;5077715;28;20454;-50
2022/08/03 04:03:33;;;;;;;6.37;5.30;;;16.50;1.00;;;;;;5077403;28;20497;-55
2022/08/03 04:11:39;;;;;;;5.20;4.70;;;16.50;1.00;;;;;;5077061;28;20441;-54
2022/08/03 04:14:12;;;;;;;5.60;5.07;;;16.50;1.00;;;;;;5077344;28;20466;-55
2022/08/03 04:16:43;;;;;;;5.40;4.90;;;16.50;1.00;;;;;;5077764;28;20495;-52
2022/08/03 04:19:18;;;;;;;8.43;6.17;;;16.60;1.00;;;;;;5077850;28;20461;-54
2022/08/03 04:21:50;;;;;;;6.03;5.43;;;16.60;1.00;;;;;;5077611;28;20461;-54
2022/08/03 04:24:20;;;;;;;6.70;6.00;;;16.60;1.00;;;;;;5077812;28;20527;-57
2022/08/03 04:26:51;;;;;;;6.70;5.83;;;16.60;1.00;;;;;;5077438;28;20461;-54
2022/08/03 04:29:20;;;;;;;6.10;5.60;;;16.60;1.00;;;;;;5077543;28;20464;-51
2022/08/03 04:31:54;;;;;;;5.77;5.17;;;16.70;1.00;;;;;;5077657;28;20461;-58
2022/08/03 04:34:21;;;;;;;5.43;4.93;;;16.70;1.00;;;;;;5077519;28;20492;-53
2022/08/03 04:36:53;;;;;;;6.43;4.83;;;16.70;99.90;;;;;;5076551;28;20938;-53
2022/08/03 04:39:26;;;;;;;5.77;5.27;;;16.70;99.90;;;;;;5076892;28;20512;-55
2022/08/03 04:41:56;;;;;;;5.97;5.27;;;16.70;99.90;;;;;;5077090;28;20461;-53
2022/08/03 04:44:25;;;;;;;6.37;5.20;;;16.70;99.90;;;;;;5076498;28;20534;-53
2022/08/03 04:46:53;;;;;;;5.90;5.00;;;16.80;99.90;;;;;;5077268;28;20457;-50
2022/08/03 04:49:23;;;;;;;5.50;4.70;;;16.80;99.90;;;;;;5077229;28;20770;-53
2022/08/03 04:51:51;;;;;;;6.73;6.13;;;16.80;99.90;;;;;;5076903;28;20461;-51
2022/08/03 04:54:22;;;;;;;6.47;5.73;;;16.90;99.90;;;;;;5076709;28;20495;-56
2022/08/03 04:56:52;;;;;;;5.70;5.13;;;16.90;99.90;;;;;;5077057;28;20582;-54
2022/08/03 04:59:19;;;;;;;5.80;5.30;;;16.90;99.90;;;;;;5075301;28;20432;-58
2022/08/03 05:01:49;;;;;;;6.20;5.13;;;16.90;99.90;;;;;;5076969;28;20467;-55
2022/08/03 05:04:17;;;;;;;6.20;4.80;;;17.00;99.90;;;;;;5077038;28;20435;-50
2022/08/03 05:06:44;;;;;;;15.80;6.43;;;17.00;99.90;;;;;;5077135;28;20458;-54
2022/08/03 05:09:12;;;;;;;5.23;4.73;;;17.10;99.90;;;;;;5076997;28;20556;-56
2022/08/03 05:11:40;;;;;;;5.10;4.57;;;17.20;99.90;;;;;;5076474;28;20514;-56
2022/08/03 05:14:08;;;;;;;4.50;4.10;;;17.20;99.90;;;;;;5076339;28;20961;-54
2022/08/03 05:16:36;;;;;;;5.43;4.93;;;17.30;99.90;;;;;;5076979;28;20474;-57
2022/08/03 05:19:06;;;;;;;5.20;4.80;;;17.30;99.90;;;;;;5076939;28;20504;-58
2022/08/03 05:21:35;;;;;;;6.30;4.70;;;17.40;99.90;;;;;;5074918;28;20552;-56
2022/08/03 05:24:02;;;;;;;9.07;5.23;;;17.50;99.90;;;;;;5074197;28;20874;-53
2022/08/03 05:26:29;;;;;;;4.63;4.23;;;17.50;99.90;;;;;;5075887;28;20464;-58
2022/08/03 05:28:58;;;;;;;6.40;5.10;;;17.60;99.90;;;;;;5075652;28;20453;-54
2022/08/03 05:31:26;;;;;;;6.93;6.23;;;17.70;37.40;;;;;;5075525;28;20462;-56
2022/08/03 05:33:54;;;;;;;7.33;4.90;;;17.90;36.90;;;;;;5074732;28;20925;-53
2022/08/03 05:36:21;;;;;;;6.33;5.07;;;18.00;6.80;;;;;;5070420;28;20492;-50
2022/08/03 05:38:48;;;;;;;6.43;4.77;;;18.10;1.00;;;;;;5075960;28;20466;-59
2022/08/03 05:41:16;;;;;;;5.03;4.53;;;18.30;1.00;;;;;;5075472;28;20463;-56
2022/08/03 05:43:46;;;;;;;6.00;5.03;;;18.40;1.00;;;;;;5075899;28;20947;-59
2022/08/03 05:46:13;;;;;;;5.57;5.07;;;18.60;1.00;;;;;;5075477;28;20457;-59
2022/08/03 05:48:43;;;;;;;8.23;5.13;;;18.70;1.00;;;;;;5078887;28;20467;-57
2022/08/03 05:51:12;;;;;;;5.40;4.90;;;18.90;1.00;;;;;;5079905;28;20528;-57
2022/08/03 05:53:42;;;;;;;5.53;4.90;;;19.00;1.00;;;;;;5079228;28;20489;-59
2022/08/03 05:56:15;;;;;;;6.13;5.30;;;19.20;1.00;;;;;;5078858;28;20496;-59
2022/08/03 05:58:46;;;;;;;5.47;4.93;;;19.40;1.00;;;;;;5078920;28;20765;-59
2022/08/03 06:01:13;;;;;;;5.73;4.73;;;19.50;1.00;;;;;;5079255;28;20514;-57
2022/08/03 06:03:42;;;;;;;7.80;5.30;;;19.70;1.00;;;;;;5079117;28;20526;-58
2022/08/03 06:06:12;;;;;;;6.43;4.50;;;19.90;1.00;;;;;;5078610;28;20465;-54
2022/08/03 06:08:42;;;;;;;6.73;4.77;;;20.10;1.00;;;;;;5079202;28;20469;-57
2022/08/03 06:11:13;;;;;;;5.10;4.33;;;20.30;1.00;;;;;;5079007;28;20926;-59
2022/08/03 06:13:41;;;;;;;9.83;4.13;;;20.60;1.00;;;;;;5078359;28;20463;-53
2022/08/03 06:16:08;;;;;;;4.70;4.10;;;21.00;1.00;;;;;;5078892;28;20546;-58
2022/08/03 06:18:37;;;;;;;5.57;5.07;;;21.40;1.00;;;;;;5079239;28;20468;-58
2022/08/03 06:21:09;;;;;;;5.43;4.30;;;21.70;1.00;;;;;;5078655;28;20539;-59
2022/08/03 06:23:36;;;;;;;4.67;4.17;;;22.10;99.90;;;;;;5078367;28;20461;-60
2022/08/03 06:26:04;;;;;;;8.00;4.17;;;22.50;99.90;;;;;;5077527;28;20734;-57
2022/08/03 06:28:32;;;;;;;6.53;3.83;;;23.00;1.00;;;;;;5077621;28;20461;-56
2022/08/03 06:31:02;;;;;;;7.63;4.13;;;23.40;1.00;;;;;;5078818;28;20467;-58
2022/08/03 06:33:29;;;;;;;5.20;4.03;;;23.50;99.90;;;;;;5069662;28;20943;-57
2022/08/03 06:35:56;;;;;;;4.30;3.90;;;23.80;99.90;;;;;;5077481;28;20495;-60
2022/08/03 06:38:28;;;;;;;4.73;3.60;;;24.20;99.90;;;;;;5077860;28;20544;-56
2022/08/03 06:40:58;;;;;;;5.80;3.70;;;24.40;99.90;;;;;;5071446;28;20464;-60
2022/08/03 06:43:25;;;;;;;3.93;3.40;;;24.50;99.90;;;;;;5077475;28;20481;-58
2022/08/03 06:45:54;;;;;;;5.17;4.20;;;24.80;99.90;;;;;;5076491;28;20431;-59
2022/08/03 06:48:25;;;;;;;4.47;4.07;;;25.00;99.90;;;;;;5077168;28;20982;-57
2022/08/03 06:50:55;;;;;;;4.80;4.30;;;25.20;99.90;;;;;;5076020;28;20465;-58
2022/08/03 06:53:22;;;;;;;4.60;4.07;;;25.50;99.90;;;;;;5077408;28;20489;-58
2022/08/03 06:55:54;;;;;;;5.13;4.73;;;25.80;99.90;;;;;;5077896;28;20504;-55
2022/08/03 06:58:21;;;;;;;3.90;3.50;;;26.10;99.90;;;;;;5077423;28;20757;-58
2022/08/03 07:00:51;;;;;;;4.20;3.83;;;26.30;99.90;;;;;;5077191;28;20759;-58
2022/08/03 07:03:19;;;;;;;4.07;3.67;;;26.60;99.90;;;;;;5076141;28;20440;-58
2022/08/03 07:05:46;;;;;;;4.63;4.10;;;26.70;99.90;;;;;;5076268;28;20554;-58
2022/08/03 07:08:14;;;;;;;3.80;3.50;;;26.70;99.90;;;;;;5076002;28;20497;-58
2022/08/03 07:10:42;;;;;;;8.33;4.30;;;26.60;99.90;;;;;;5076305;28;20489;-58
2022/08/03 07:13:14;;;;;;;3.80;3.50;;;26.60;99.90;;;;;;5076354;28;20453;-58
2022/08/03 07:15:41;;;;;;;3.93;3.50;;;26.70;99.90;;;;;;5075995;28;20780;-58
2022/08/03 07:18:08;;;;;;;3.60;3.30;;;27.20;99.90;;;;;;5076946;28;20741;-58
2022/08/03 07:20:36;;;;;;;7.00;3.33;;;27.40;99.90;;;;;;5073565;28;20546;-58
2022/08/03 07:23:03;;;;;;;3.63;3.33;;;27.50;99.90;;;;;;5076930;28;20461;-58
2022/08/03 07:25:30;;;;;;;3.80;3.50;;;27.60;99.90;;;;;;5074985;28;20465;-58
2022/08/03 07:27:57;;;;;;;3.87;3.50;;;27.80;99.90;;;;;;5073274;28;20483;-58
2022/08/03 07:30:30;;;;;;;5.90;3.70;;;28.00;99.90;;;;;;5075843;28;20468;-58
2022/08/03 07:32:57;;;;;;;4.13;3.73;;;28.10;99.90;;;;;;5075287;28;20484;-59
2022/08/03 07:35:25;;;;;;;3.70;3.40;;;28.40;99.90;;;;;;5072909;28;20773;-59
2022/08/03 07:37:52;;;;;;;4.20;3.30;;;28.40;99.90;;;;;;5076131;28;20587;-59
2022/08/03 07:40:20;;;;;;;3.50;3.20;;;28.60;99.90;;;;;;5073169;28;20450;-59
2022/08/03 07:42:47;;;;;;;3.77;3.47;;;28.80;99.90;;;;;;5076904;28;20436;-59
2022/08/03 07:45:17;;;;;;;5.30;4.80;;;28.70;99.90;;;;;;5075572;28;20465;-59
2022/08/03 07:47:48;;;;;;;4.17;3.77;;;28.90;99.90;;;;;;5076234;28;20503;-59
2022/08/03 07:50:16;;;;;;;3.93;3.53;;;29.10;99.90;;;;;;5074440;28;20457;-59
2022/08/03 07:52:50;;;;;;;3.60;3.00;;;29.70;99.90;;;;;;5075358;28;20462;-60
2022/08/03 07:55:20;;;;;;;3.40;3.10;;;30.10;99.90;;;;;;5076040;28;20906;-59
2022/08/03 07:57:58;;;;;;;4.43;4.03;;;30.20;99.90;;;;;;5075547;28;20546;-58
2022/08/03 08:00:34;;;;;;;3.87;3.07;;;30.20;99.90;;;;;;5073948;28;20468;-58
2022/08/03 08:03:02;;;;;;;6.10;3.03;;;29.60;99.90;;;;;;5074114;28;20551;-59
2022/08/03 08:05:30;;;;;;;4.20;3.90;;;29.60;99.90;;;;;;5073037;28;20480;-59
2022/08/03 08:07:59;;;;;;;4.33;3.40;;;29.90;99.90;;;;;;5072581;28;20456;-59
2022/08/03 08:10:31;;;;;;;5.57;2.50;;;30.00;99.90;;;;;;5073008;28;20903;-59
2022/08/03 08:13:01;;;;;;;3.40;3.10;;;29.90;99.90;;;;;;5070850;28;20769;-59
2022/08/03 08:15:28;;;;;;;4.07;3.77;;;30.20;99.90;;;;;;5073915;28;20457;-59
2022/08/03 08:18:01;;;;;;;2.53;2.33;;;30.20;99.90;;;;;;5073850;28;20492;-59
2022/08/03 08:20:31;;;;;;;2.70;2.50;;;30.30;99.90;;;;;;5074796;28;20462;-58
2022/08/03 08:23:01;;;;;;;4.50;3.23;;;30.60;99.90;;;;;;5075002;28;20453;-59
2022/08/03 08:25:28;;;;;;;3.33;3.03;;;30.70;99.90;;;;;;5074217;28;20522;-60
2022/08/03 08:27:56;;;;;;;3.30;3.07;;;30.90;99.90;;;;;;5074642;28;20424;-59
2022/08/03 08:30:31;;;;;;;4.07;3.57;;;30.90;99.90;;;;;;5072016;28;20783;-59
2022/08/03 08:32:58;;;;;;;3.10;2.90;;;30.80;99.90;;;;;;5072020;28;20790;-59
2022/08/03 08:35:26;;;;;;;4.70;3.73;;;30.70;99.90;;;;;;5075003;28;20458;-60
2022/08/03 08:37:55;;;;;;;2.70;2.50;;;30.80;99.90;;;;;;5073227;28;20497;-59
2022/08/03 08:40:24;;;;;;;4.80;3.47;;;30.70;99.90;;;;;;5074189;28;20436;-59
2022/08/03 08:42:54;;;;;;;3.00;2.80;;;30.70;99.90;;;;;;5074885;28;21150;-60
2022/08/03 08:45:24;;;;;;;3.50;3.13;;;30.90;99.90;;;;;;5071901;28;20461;-60
2022/08/03 08:48:02;;;;;;;3.30;3.00;;;31.00;99.90;;;;;;5074351;28;20457;-60
2022/08/03 08:50:30;;;;;;;3.20;3.00;;;31.10;99.90;;;;;;5073360;28;20883;-60
2022/08/03 08:53:01;;;;;;;3.60;3.17;;;31.60;99.90;;;;;;5074805;28;20845;-60
2022/08/03 08:55:29;;;;;;;3.60;2.77;;;31.30;99.90;;;;;;5074745;28;20493;-60
2022/08/03 08:58:01;;;;;;;3.33;2.93;;;30.90;99.90;;;;;;5074694;28;20543;-60
2022/08/03 09:00:30;;;;;;;6.60;3.30;;;30.80;99.90;;;;;;5075391;28;20865;-59
2022/08/03 09:02:58;;;;;;;4.53;3.30;;;31.00;99.90;;;;;;5072568;28;20465;-59
2022/08/03 09:05:31;;;;;;;2.90;2.70;;;31.00;99.90;;;;;;5074504;28;20457;-60
2022/08/03 09:08:00;;;;;;;2.87;2.60;;;31.20;99.90;;;;;;5071013;28;20468;-60
2022/08/03 09:10:27;;;;;;;3.07;2.80;;;31.60;99.90;;;;;;5073215;28;20471;-60
2022/08/03 09:12:57;;;;;;;3.23;2.93;;;31.50;99.90;;;;;;5073492;28;20466;-59
2022/08/03 09:15:26;;;;;;;3.03;2.83;;;31.70;99.90;;;;;;5074191;28;20467;-60
2022/08/03 09:18:00;;;;;;;5.57;3.37;;;31.70;99.90;;;;;;5073551;28;20497;-60
2022/08/03 09:20:29;;;;;;;4.43;2.73;;;31.80;99.90;;;;;;5074970;28;20875;-60
2022/08/03 09:23:03;;;;;;;3.40;3.10;;;32.00;99.90;;;;;;5076465;28;20474;-60
2022/08/03 09:25:34;;;;;;;4.23;3.13;;;32.50;99.90;;;;;;5078945;28;20507;-59
2022/08/03 09:28:08;;;;;;;4.33;3.97;;;32.70;99.90;;;;;;5078711;28;20792;-60
2022/08/03 09:30:39;;;;;;;3.80;3.50;;;32.50;99.90;;;;;;5077238;28;20467;-60
2022/08/03 09:33:11;;;;;;;3.53;3.23;;;32.60;99.90;;;;;;5076299;28;20481;-60
2022/08/03 09:35:44;;;;;;;4.00;3.40;;;32.30;99.90;;;;;;5078229;28;20926;-59
2022/08/03 09:38:18;;;;;;;4.13;3.40;;;32.90;99.90;;;;;;5076037;28;20740;-60
2022/08/03 09:40:46;;;;;;;4.87;3.63;;;33.20;99.90;;;;;;5077895;28;20540;-57
2022/08/03 09:43:18;;;;;;;4.17;3.80;;;33.60;99.90;;;;;;5075653;28;20556;-61
2022/08/03 09:45:48;;;;;;;4.50;4.10;;;33.00;99.90;;;;;;5077748;28;20488;-60
2022/08/03 09:48:23;;;;;;;3.50;3.20;;;33.10;99.90;;;;;;5077284;28;20914;-60
2022/08/03 09:50:52;;;;;;;4.90;3.87;;;33.30;99.90;;;;;;5078312;28;20758;-59
2022/08/03 09:53:22;;;;;;;4.40;3.97;;;32.90;99.90;;;;;;5075448;28;20492;-59
2022/08/03 09:55:55;;;;;;;4.90;4.00;;;33.00;99.90;;;;;;5078972;28;20464;-59
2022/08/03 09:58:26;;;;;;;4.40;4.00;;;33.30;99.90;;;;;;5078928;28;20488;-59
2022/08/03 10:00:54;;;;;;;4.43;3.93;;;33.60;99.90;;;;;;5079241;28;20563;-60
2022/08/03 10:03:30;;;;;;;3.87;3.57;;;33.50;99.90;;;;;;5089640;28;20558;-60
2022/08/03 10:06:15;;;;;;;4.23;3.83;;;33.90;99.90;;;;;;5081788;28;20463;-60
2022/08/03 10:08:46;;;;;;;3.90;3.00;;;33.50;99.90;;;;;;5078819;28;20460;-60
2022/08/03 10:11:30;;;;;;;4.00;3.77;;;33.70;99.90;;;;;;5077603;28;20500;-60
2022/08/03 10:14:00;;;;;;;4.00;3.57;;;33.80;99.90;;;;;;5076451;28;20507;-61
2022/08/03 10:16:30;;;;;;;3.80;3.50;;;34.00;99.90;;;;;;5077446;28;20473;-58
2022/08/03 10:19:04;;;;;;;3.60;3.17;;;34.00;99.90;;;;;;5079313;28;20525;-60
2022/08/03 10:21:34;;;;;;;4.40;4.00;;;33.70;99.90;;;;;;5075915;28;20976;-59
2022/08/03 10:24:13;;;;;;;3.30;3.07;;;33.60;99.90;;;;;;5072325;28;20811;-60
2022/08/03 10:26:45;;;;;;;4.03;3.63;;;33.70;99.90;;;;;;5079190;28;20474;-59
2022/08/03 10:29:20;;;;;;;3.37;3.10;;;33.20;99.90;;;;;;5078230;28;20468;-60
2022/08/03 10:31:48;;;;;;;3.50;3.20;;;33.10;99.90;;;;;;5078718;28;20435;-59
2022/08/03 10:34:23;;;;;;;9.80;2.80;;;33.70;99.90;;;;;;5077364;28;20463;-60
2022/08/03 10:36:55;;;;;;;3.40;3.10;;;34.50;99.90;;;;;;5078324;28;20488;-60
2022/08/03 10:39:35;;;;;;;4.40;3.70;;;34.70;99.90;;;;;;5078245;28;20460;-59
2022/08/03 10:42:05;;;;;;;3.37;3.17;;;34.70;99.90;;;;;;5078445;28;20464;-60
2022/08/03 10:44:38;;;;;;;3.27;2.97;;;34.20;99.90;;;;;;5077988;28;20460;-59
2022/08/03 10:47:11;;;;;;;5.83;4.00;;;34.30;99.90;;;;;;5078098;28;20543;-60
2022/08/03 10:49:39;;;;;;;3.13;2.83;;;34.30;99.90;;;;;;5078289;28;20471;-60
2022/08/03 10:52:07;;;;;;;4.80;3.57;;;34.30;99.90;;;;;;5078063;28;20435;-60
2022/08/03 10:57:49;;;;;;;5.30;3.87;;;35.50;99.90;;;;;;5077828;28;20480;-60
2022/08/03 11:00:23;;;;;;;5.20;3.43;;;35.30;99.90;;;;;;5078522;28;20461;-58
2022/08/03 11:03:08;;;;;;;2.93;2.73;;;35.00;99.90;;;;;;5078452;28;20552;-59
2022/08/03 11:05:47;;;;;;;3.40;3.10;;;35.00;99.90;;;;;;5077782;28;20735;-58
2022/08/03 11:08:29;;;;;;;3.17;2.87;;;34.90;99.90;;;;;;5075489;28;20480;-60
2022/08/03 11:10:59;;;;;;;3.50;2.87;;;34.80;99.90;;;;;;5074664;28;20474;-59
2022/08/03 11:13:30;;;;;;;4.67;3.30;;;34.40;99.90;;;;;;5076692;28;20874;-59
2022/08/03 11:16:18;;;;;;;3.47;3.17;;;34.90;99.90;;;;;;5076937;28;20846;-59
2022/08/03 11:18:57;;;;;;;3.60;2.83;;;35.00;99.90;;;;;;5078206;28;20466;-59
2022/08/03 11:21:56;;;;;;;3.90;3.60;;;35.00;99.90;;;;;;5077600;28;20750;-60
2022/08/03 11:25:00;;;;;;;3.83;3.13;;;35.30;99.90;;;;;;5077905;28;20555;-60
2022/08/03 11:27:32;;;;;;;5.15;3.15;;;36.10;99.90;;;;;;5062506;28;20202;-60
2022/08/03 11:30:02;;;;;;;4.60;2.90;;;36.70;99.90;;;;;;5075856;28;20446;-60
2022/08/03 11:32:51;;;;;;;4.07;2.83;;;36.50;99.90;;;;;;5075451;28;20241;-60
2022/08/03 11:35:25;;;;;;;3.90;3.50;;;36.60;99.90;;;;;;5076583;28;20206;-60
2022/08/03 11:38:07;;;;;;;4.03;3.60;;;36.60;99.90;;;;;;5077114;28;20279;-61
2022/08/03 11:40:36;;;;;;;3.67;3.03;;;36.30;99.90;;;;;;5077379;28;20210;-60
2022/08/03 11:43:08;;;;;;;3.63;3.33;;;36.30;99.90;;;;;;5077066;28;20305;-60
2022/08/03 11:45:38;;;;;;;3.35;3.10;;;36.70;99.90;;;;;;5075922;28;20530;-60
2022/08/03 11:48:17;;;;;;;4.00;3.35;;;36.80;99.90;;;;;;5075724;28;20203;-60
2022/08/03 11:50:45;;;;;;;2.90;2.65;;;36.60;99.90;;;;;;5075677;28;20206;-60
2022/08/03 11:53:18;;;;;;;3.47;3.17;;;36.70;99.90;;;;;;5075390;28;20233;-61
2022/08/03 11:55:48;;;;;;;3.20;2.88;;;37.10;99.90;;;;;;5076885;28;20206;-61
2022/08/03 11:58:23;;;;;;;3.15;2.70;;;37.30;99.90;;;;;;5077414;28;20234;-60
2022/08/03 12:00:54;;;;;;;6.88;2.72;;;37.00;99.90;;;;;;5076832;28;20209;-61
2022/08/03 12:03:22;;;;;;;4.20;2.85;;;36.80;99.90;;;;;;5076390;28;20285;-61
2022/08/03 12:05:51;;;;;;;2.97;2.70;;;37.20;99.90;;;;;;5075455;28;20198;-61
2022/08/03 12:08:30;;;;;;;3.33;3.05;;;36.70;99.90;;;;;;5076120;28;20202;-58
2022/08/03 12:10:58;;;;;;;6.30;2.78;;;37.10;99.90;;;;;;5076230;28;20206;-60
2022/08/03 12:13:37;;;;;;;4.43;2.88;;;36.50;99.90;;;;;;5073925;28;20301;-60
2022/08/03 12:16:05;;;;;;;2.53;2.33;;;36.20;99.90;;;;;;5074679;28;20206;-60
2022/08/03 12:18:32;;;;;;;3.22;3.00;;;35.50;99.90;;;;;;5075856;28;20273;-59
2022/08/03 12:21:08;;;;;;;3.30;3.00;;;35.30;99.90;;;;;;5074823;28;20652;-59
2022/08/03 12:23:36;;;;;;;3.13;2.77;;;35.00;99.90;;;;;;5070123;28;20242;-60
2022/08/03 12:26:05;;;;;;;3.77;2.90;;;34.90;99.90;;;;;;5074052;28;20940;-60
2022/08/03 12:28:39;;;;;;;3.70;3.13;;;35.00;99.90;;;;;;5076014;28;20438;-60
2022/08/03 12:31:08;;;;;;;3.07;2.80;;;34.60;99.90;;;;;;5076364;28;20459;-60
2022/08/03 12:34:00;;;;;;;4.50;2.73;;;34.60;99.90;;;;;;5075017;28;20522;-59
2022/08/03 12:36:29;;;;;;;3.00;2.70;;;35.00;99.90;;;;;;5076386;28;20909;-59
2022/08/03 12:39:01;;;;;;;3.70;2.53;;;35.80;99.90;;;;;;5076775;28;20492;-60
2022/08/03 12:41:32;;;;;;;2.97;2.50;;;36.10;99.90;;;;;;5076073;28;20514;-60
2022/08/03 12:44:02;;;;;;;3.40;3.10;;;36.20;99.90;;;;;;5074511;28;20460;-60
2022/08/03 12:46:34;;;;;;;4.13;2.90;;;36.60;99.90;;;;;;5076651;28;20206;-59
2022/08/03 12:49:05;;;;;;;3.55;2.55;;;36.90;99.90;;;;;;5075962;28;20209;-60
2022/08/03 12:51:34;;;;;;;4.55;2.75;;;36.80;99.90;;;;;;5076712;28;20206;-60
2022/08/03 12:54:03;;;;;;;4.20;3.17;;;36.70;99.90;;;;;;5078042;28;20256;-61
2022/08/03 12:56:30;;;;;;;3.80;2.95;;;37.00;99.90;;;;;;5075895;28;20253;-59
2022/08/03 12:58:57;;;;;;;5.55;2.33;;;37.10;99.90;;;;;;5075914;28;20237;-61
2022/08/03 13:01:28;;;;;;;3.67;3.05;;;37.20;99.90;;;;;;5075667;28;20206;-60
2022/08/03 13:03:55;;;;;;;12.60;3.17;;;37.10;99.90;;;;;;5076049;28;20206;-60
2022/08/03 13:06:24;;;;;;;3.03;2.60;;;37.20;99.90;;;;;;5076189;28;20251;-59
2022/08/03 13:09:04;;;;;;;3.45;3.00;;;37.10;99.90;;;;;;5076563;28;20277;-59
2022/08/03 13:11:32;;;;;;;2.63;2.42;;;37.20;99.90;;;;;;5075869;28;20211;-59
2022/08/03 13:14:01;;;;;;;5.22;2.50;;;37.50;99.90;;;;;;5074579;28;20202;-59
2022/08/03 13:16:31;;;;;;;2.72;2.40;;;37.40;99.90;;;;;;5074771;28;20203;-60